sensor_id;sensor_type;location;lat;lon;timestamp;temperature;humidity
6206;DHT22;3136;48.788;9.772;2022-12-18T00:01:47;-11.50;1.00
6206;DHT22;3136;48.788;9.772;2022-12-18T00:04:24;-11.50;1.00
6206;DHT22;3136;48.788;9.772;2022-12-18T00:06:50;-11.60;1.00
6206;DHT22;3136;48.788;9.772;2022-12-18T00:09:16;-11.60;1.00
6206;DHT22;3136;48.788;9.772;2022-12-18T00:11:42;-11.60;1.00
6206;DHT22;3136;48.788;9.772;2022-12-18T00:14:10;-11.60;1.00
6206;DHT22;3136;48.788;9.772;2022-12-18T00:16:36;-11.60;1.00
6206;DHT22;3136;48.788;9.772;2022-12-18T00:19:02;-11.60;99.90
6206;DHT22;3136;48.788;9.772;2022-12-18T00:21:29;-11.60;98.20
6206;DHT22;3136;48.788;9.772;2022-12-18T00:23:55;-11.60;99.90
6206;DHT22;3136;48.788;9.772;2022-12-18T00:26:29;-11.50;99.90
6206;DHT22;3136;48.788;9.772;2022-12-18T00:28:57;-11.60;99.90
6206;DHT22;3136;48.788;9.772;2022-12-18T00:31:24;-11.60;1.00
6206;DHT22;3136;48.788;9.772;2022-12-18T00:33:50;-11.60;17.30
6206;DHT22;3136;48.788;9.772;2022-12-18T00:36:18;-11.60;38.40
6206;DHT22;3136;48.788;9.772;2022-12-18T00:38:45;-11.60;24.50
6206;DHT22;3136;48.788;9.772;2022-12-18T00:41:12;-11.60;29.40
6206;DHT22;3136;48.788;9.772;2022-12-18T00:43:38;-11.60;99.90
6206;DHT22;3136;48.788;9.772;2022-12-18T00:46:04;-11.60;96.50
6206;DHT22;3136;48.788;9.772;2022-12-18T00:48:30;-11.60;99.90
6206;DHT22;3136;48.788;9.772;2022-12-18T00:50:55;-11.60;93.90
6206;DHT22;3136;48.788;9.772;2022-12-18T00:53:21;-11.50;28.30
6206;DHT22;3136;48.788;9.772;2022-12-18T00:55:47;-11.60;1.00
6206;DHT22;3136;48.788;9.772;2022-12-18T00:58:14;-11.60;1.00
6206;DHT22;3136;48.788;9.772;2022-12-18T01:00:41;-11.60;1.00
6206;DHT22;3136;48.788;9.772;2022-12-18T01:03:06;-11.60;1.00
6206;DHT22;3136;48.788;9.772;2022-12-18T01:05:33;-11.60;43.00
6206;DHT22;3136;48.788;9.772;2022-12-18T01:07:58;-11.60;27.70
6206;DHT22;3136;48.788;9.772;2022-12-18T01:10:25;-11.50;1.00
6206;DHT22;3136;48.788;9.772;2022-12-18T01:12:51;-11.60;1.00
6206;DHT22;3136;48.788;9.772;2022-12-18T01:15:17;-11.70;1.00
6206;DHT22;3136;48.788;9.772;2022-12-18T01:17:43;-11.70;1.00
6206;DHT22;3136;48.788;9.772;2022-12-18T01:20:11;-11.70;1.00
6206;DHT22;3136;48.788;9.772;2022-12-18T01:22:37;-11.70;1.00
6206;DHT22;3136;48.788;9.772;2022-12-18T01:25:04;-11.70;1.00
6206;DHT22;3136;48.788;9.772;2022-12-18T01:27:31;-11.80;1.00
6206;DHT22;3136;48.788;9.772;2022-12-18T01:29:56;-11.70;1.00
6206;DHT22;3136;48.788;9.772;2022-12-18T01:32:22;-11.80;1.00
6206;DHT22;3136;48.788;9.772;2022-12-18T01:34:48;-11.80;1.00
6206;DHT22;3136;48.788;9.772;2022-12-18T01:37:14;-11.80;1.00
6206;DHT22;3136;48.788;9.772;2022-12-18T01:39:39;-11.80;1.00
6206;DHT22;3136;48.788;9.772;2022-12-18T01:42:15;-10.80;1.00
6206;DHT22;3136;48.788;9.772;2022-12-18T01:45:27;-11.80;1.00
6206;DHT22;3136;48.788;9.772;2022-12-18T01:48:02;-11.80;1.00
6206;DHT22;3136;48.788;9.772;2022-12-18T01:50:32;-11.90;1.00
6206;DHT22;3136;48.788;9.772;2022-12-18T01:55:48;-11.90;1.00
6206;DHT22;3136;48.788;9.772;2022-12-18T01:58:15;-11.90;1.00
6206;DHT22;3136;48.788;9.772;2022-12-18T02:00:41;-11.90;1.00
6206;DHT22;3136;48.788;9.772;2022-12-18T02:03:10;-11.90;1.00
6206;DHT22;3136;48.788;9.772;2022-12-18T02:08:30;-11.90;1.00
6206;DHT22;3136;48.788;9.772;2022-12-18T02:11:12;-11.90;47.80
6206;DHT22;3136;48.788;9.772;2022-12-18T02:13:57;-11.80;99.90
6206;DHT22;3136;48.788;9.772;2022-12-18T02:18:57;-11.70;99.90
6206;DHT22;3136;48.788;9.772;2022-12-18T02:24:18;-11.70;99.90
6206;DHT22;3136;48.788;9.772;2022-12-18T02:27:06;-11.70;8.70
6206;DHT22;3136;48.788;9.772;2022-12-18T02:29:45;-11.80;1.00
6206;DHT22;3136;48.788;9.772;2022-12-18T02:32:18;-11.80;1.00
6206;DHT22;3136;48.788;9.772;2022-12-18T02:34:46;-11.80;1.00
6206;DHT22;3136;48.788;9.772;2022-12-18T02:37:15;-11.90;1.00
6206;DHT22;3136;48.788;9.772;2022-12-18T02:39:43;-11.90;1.00
6206;DHT22;3136;48.788;9.772;2022-12-18T02:42:10;-11.90;1.00
6206;DHT22;3136;48.788;9.772;2022-12-18T02:44:45;-11.90;1.00
6206;DHT22;3136;48.788;9.772;2022-12-18T02:47:12;-11.90;1.00
6206;DHT22;3136;48.788;9.772;2022-12-18T02:50:01;-11.80;32.50
6206;DHT22;3136;48.788;9.772;2022-12-18T03:01:24;-11.80;1.00
6206;DHT22;3136;48.788;9.772;2022-12-18T03:04:25;-11.80;1.00
6206;DHT22;3136;48.788;9.772;2022-12-18T03:07:02;-11.90;1.00
6206;DHT22;3136;48.788;9.772;2022-12-18T03:09:32;-11.80;1.00
6206;DHT22;3136;48.788;9.772;2022-12-18T03:12:06;-11.80;1.00
6206;DHT22;3136;48.788;9.772;2022-12-18T03:15:03;-11.80;1.00
6206;DHT22;3136;48.788;9.772;2022-12-18T03:17:31;-11.80;1.00
6206;DHT22;3136;48.788;9.772;2022-12-18T03:20:04;-11.70;1.00
6206;DHT22;3136;48.788;9.772;2022-12-18T03:22:32;-11.70;1.00
6206;DHT22;3136;48.788;9.772;2022-12-18T03:25:00;-11.70;1.00
6206;DHT22;3136;48.788;9.772;2022-12-18T03:27:30;-11.70;1.00
6206;DHT22;3136;48.788;9.772;2022-12-18T03:30:04;-11.70;1.00
6206;DHT22;3136;48.788;9.772;2022-12-18T03:32:47;-11.60;1.00
6206;DHT22;3136;48.788;9.772;2022-12-18T03:35:18;-11.70;1.00
6206;DHT22;3136;48.788;9.772;2022-12-18T03:37:45;-11.80;1.00
6206;DHT22;3136;48.788;9.772;2022-12-18T03:40:11;-11.80;1.00
6206;DHT22;3136;48.788;9.772;2022-12-18T03:42:48;-11.80;1.00
6206;DHT22;3136;48.788;9.772;2022-12-18T03:45:23;-11.80;1.00
6206;DHT22;3136;48.788;9.772;2022-12-18T03:50:28;-11.80;1.00
6206;DHT22;3136;48.788;9.772;2022-12-18T03:56:22;-11.80;1.00
6206;DHT22;3136;48.788;9.772;2022-12-18T03:58:50;-11.80;1.00
6206;DHT22;3136;48.788;9.772;2022-12-18T04:01:17;-11.80;1.00
6206;DHT22;3136;48.788;9.772;2022-12-18T04:03:46;-11.80;1.00
6206;DHT22;3136;48.788;9.772;2022-12-18T04:06:15;-11.80;1.00
6206;DHT22;3136;48.788;9.772;2022-12-18T04:08:41;-11.80;1.00
6206;DHT22;3136;48.788;9.772;2022-12-18T04:11:06;-11.90;99.90
6206;DHT22;3136;48.788;9.772;2022-12-18T04:13:35;-11.90;99.90
6206;DHT22;3136;48.788;9.772;2022-12-18T04:16:00;-12.00;99.90
6206;DHT22;3136;48.788;9.772;2022-12-18T04:18:26;-12.00;99.90
6206;DHT22;3136;48.788;9.772;2022-12-18T04:20:52;-12.00;99.90
6206;DHT22;3136;48.788;9.772;2022-12-18T04:23:18;-12.00;1.00
6206;DHT22;3136;48.788;9.772;2022-12-18T04:25:43;-12.00;1.00
6206;DHT22;3136;48.788;9.772;2022-12-18T04:28:09;-12.00;1.00
6206;DHT22;3136;48.788;9.772;2022-12-18T04:30:34;-12.10;1.00
6206;DHT22;3136;48.788;9.772;2022-12-18T04:33:00;-12.10;1.00
6206;DHT22;3136;48.788;9.772;2022-12-18T04:35:25;-12.10;1.00
6206;DHT22;3136;48.788;9.772;2022-12-18T04:37:51;-12.10;1.00
6206;DHT22;3136;48.788;9.772;2022-12-18T04:40:17;-12.10;1.00
6206;DHT22;3136;48.788;9.772;2022-12-18T04:42:42;-12.10;1.00
6206;DHT22;3136;48.788;9.772;2022-12-18T04:45:08;-12.10;1.00
6206;DHT22;3136;48.788;9.772;2022-12-18T04:47:34;-12.10;1.00
6206;DHT22;3136;48.788;9.772;2022-12-18T04:49:59;-12.10;1.00
6206;DHT22;3136;48.788;9.772;2022-12-18T04:52:25;-12.10;6.30
6206;DHT22;3136;48.788;9.772;2022-12-18T04:54:50;-12.10;1.00
6206;DHT22;3136;48.788;9.772;2022-12-18T04:57:16;-12.10;1.00
6206;DHT22;3136;48.788;9.772;2022-12-18T04:59:43;-12.10;1.00
6206;DHT22;3136;48.788;9.772;2022-12-18T05:02:09;-12.10;1.00
6206;DHT22;3136;48.788;9.772;2022-12-18T05:04:35;-12.10;1.00
6206;DHT22;3136;48.788;9.772;2022-12-18T05:07:00;-12.10;1.00
6206;DHT22;3136;48.788;9.772;2022-12-18T05:09:26;-12.10;1.00
6206;DHT22;3136;48.788;9.772;2022-12-18T05:11:51;-12.20;1.00
6206;DHT22;3136;48.788;9.772;2022-12-18T05:14:17;-12.20;1.00
6206;DHT22;3136;48.788;9.772;2022-12-18T05:16:43;-12.10;1.00
6206;DHT22;3136;48.788;9.772;2022-12-18T05:19:08;-12.10;1.00
6206;DHT22;3136;48.788;9.772;2022-12-18T05:21:34;-12.20;1.00
6206;DHT22;3136;48.788;9.772;2022-12-18T05:23:59;-12.20;99.90
6206;DHT22;3136;48.788;9.772;2022-12-18T05:26:25;-12.00;99.90
6206;DHT22;3136;48.788;9.772;2022-12-18T05:28:50;-12.30;99.90
6206;DHT22;3136;48.788;9.772;2022-12-18T05:31:16;-12.30;99.90
6206;DHT22;3136;48.788;9.772;2022-12-18T05:33:41;-12.30;1.00
6206;DHT22;3136;48.788;9.772;2022-12-18T05:36:08;-12.30;1.00
6206;DHT22;3136;48.788;9.772;2022-12-18T05:38:36;-12.10;1.00
6206;DHT22;3136;48.788;9.772;2022-12-18T05:41:02;-12.20;1.00
6206;DHT22;3136;48.788;9.772;2022-12-18T05:43:28;-12.20;1.00
6206;DHT22;3136;48.788;9.772;2022-12-18T05:45:54;-12.30;1.00
6206;DHT22;3136;48.788;9.772;2022-12-18T05:48:21;-12.30;1.00
6206;DHT22;3136;48.788;9.772;2022-12-18T05:50:48;-12.30;99.90
6206;DHT22;3136;48.788;9.772;2022-12-18T05:53:15;-12.40;99.90
6206;DHT22;3136;48.788;9.772;2022-12-18T05:55:42;-12.30;1.00
6206;DHT22;3136;48.788;9.772;2022-12-18T05:58:10;-12.30;1.00
6206;DHT22;3136;48.788;9.772;2022-12-18T06:00:38;-12.30;1.00
6206;DHT22;3136;48.788;9.772;2022-12-18T06:03:07;-12.30;1.00
6206;DHT22;3136;48.788;9.772;2022-12-18T06:05:38;-12.30;1.00
6206;DHT22;3136;48.788;9.772;2022-12-18T06:08:04;-12.30;1.00
6206;DHT22;3136;48.788;9.772;2022-12-18T06:10:30;-12.30;99.90
6206;DHT22;3136;48.788;9.772;2022-12-18T06:12:56;-12.30;1.00
6206;DHT22;3136;48.788;9.772;2022-12-18T06:15:21;-12.30;1.00
6206;DHT22;3136;48.788;9.772;2022-12-18T06:17:47;-12.30;1.00
6206;DHT22;3136;48.788;9.772;2022-12-18T06:20:12;-12.30;1.00
6206;DHT22;3136;48.788;9.772;2022-12-18T06:22:38;-12.20;1.00
6206;DHT22;3136;48.788;9.772;2022-12-18T06:25:04;-12.20;1.00
6206;DHT22;3136;48.788;9.772;2022-12-18T06:27:31;-14.20;1.00
6206;DHT22;3136;48.788;9.772;2022-12-18T06:29:59;-12.20;1.00
6206;DHT22;3136;48.788;9.772;2022-12-18T06:32:25;-12.20;1.00
6206;DHT22;3136;48.788;9.772;2022-12-18T06:34:50;-12.20;1.00
6206;DHT22;3136;48.788;9.772;2022-12-18T06:37:16;-12.30;1.00
6206;DHT22;3136;48.788;9.772;2022-12-18T06:39:41;-12.30;99.90
6206;DHT22;3136;48.788;9.772;2022-12-18T06:42:07;-12.30;99.90
6206;DHT22;3136;48.788;9.772;2022-12-18T06:44:32;-12.30;99.90
6206;DHT22;3136;48.788;9.772;2022-12-18T06:46:58;-12.30;99.90
6206;DHT22;3136;48.788;9.772;2022-12-18T06:49:23;-12.40;99.90
6206;DHT22;3136;48.788;9.772;2022-12-18T06:51:49;-12.40;99.90
6206;DHT22;3136;48.788;9.772;2022-12-18T06:54:15;-12.40;99.90
6206;DHT22;3136;48.788;9.772;2022-12-18T06:56:40;-12.50;21.30
6206;DHT22;3136;48.788;9.772;2022-12-18T06:59:06;-12.50;8.20
6206;DHT22;3136;48.788;9.772;2022-12-18T07:01:31;-12.50;99.90
6206;DHT22;3136;48.788;9.772;2022-12-18T07:03:57;-12.50;99.90
6206;DHT22;3136;48.788;9.772;2022-12-18T07:06:25;-12.40;99.90
6206;DHT22;3136;48.788;9.772;2022-12-18T07:08:51;-12.40;99.90
6206;DHT22;3136;48.788;9.772;2022-12-18T07:11:18;-12.50;1.00
6206;DHT22;3136;48.788;9.772;2022-12-18T07:13:44;-12.40;1.00
6206;DHT22;3136;48.788;9.772;2022-12-18T07:16:16;-12.40;1.00
6206;DHT22;3136;48.788;9.772;2022-12-18T07:18:42;-12.40;1.00
6206;DHT22;3136;48.788;9.772;2022-12-18T07:21:14;-12.30;1.00
6206;DHT22;3136;48.788;9.772;2022-12-18T07:23:39;-12.30;1.00
6206;DHT22;3136;48.788;9.772;2022-12-18T07:26:10;-12.30;1.00
6206;DHT22;3136;48.788;9.772;2022-12-18T07:28:37;-12.20;99.90
6206;DHT22;3136;48.788;9.772;2022-12-18T07:31:09;-12.20;99.90
6206;DHT22;3136;48.788;9.772;2022-12-18T07:33:35;-12.20;1.00
6206;DHT22;3136;48.788;9.772;2022-12-18T07:36:05;-12.10;99.90
6206;DHT22;3136;48.788;9.772;2022-12-18T07:38:32;-12.10;99.90
6206;DHT22;3136;48.788;9.772;2022-12-18T07:41:02;-12.00;99.90
6206;DHT22;3136;48.788;9.772;2022-12-18T07:43:28;-12.00;1.00
6206;DHT22;3136;48.788;9.772;2022-12-18T07:45:54;-12.00;1.00
6206;DHT22;3136;48.788;9.772;2022-12-18T07:48:19;-11.90;99.90
6206;DHT22;3136;48.788;9.772;2022-12-18T07:50:45;-11.90;99.90
6206;DHT22;3136;48.788;9.772;2022-12-18T07:53:10;-11.80;99.90
6206;DHT22;3136;48.788;9.772;2022-12-18T07:55:36;-11.80;99.90
6206;DHT22;3136;48.788;9.772;2022-12-18T07:58:03;-11.70;99.90
6206;DHT22;3136;48.788;9.772;2022-12-18T08:00:29;-11.70;99.90
6206;DHT22;3136;48.788;9.772;2022-12-18T08:02:54;-11.60;28.50
6206;DHT22;3136;48.788;9.772;2022-12-18T08:05:20;-11.50;55.40
6206;DHT22;3136;48.788;9.772;2022-12-18T08:07:46;-11.50;98.30
6206;DHT22;3136;48.788;9.772;2022-12-18T08:10:12;-11.30;1.00
6206;DHT22;3136;48.788;9.772;2022-12-18T08:12:38;-11.40;15.70
6206;DHT22;3136;48.788;9.772;2022-12-18T08:15:04;-11.30;49.50
6206;DHT22;3136;48.788;9.772;2022-12-18T08:17:30;-11.30;1.00
6206;DHT22;3136;48.788;9.772;2022-12-18T08:19:55;-11.20;1.00
6206;DHT22;3136;48.788;9.772;2022-12-18T08:22:21;-11.20;1.00
6206;DHT22;3136;48.788;9.772;2022-12-18T08:24:46;-11.10;1.00
6206;DHT22;3136;48.788;9.772;2022-12-18T08:27:12;-11.00;79.70
6206;DHT22;3136;48.788;9.772;2022-12-18T08:29:37;-10.90;88.10
6206;DHT22;3136;48.788;9.772;2022-12-18T08:32:03;-10.70;1.00
6206;DHT22;3136;48.788;9.772;2022-12-18T08:34:29;-10.70;1.00
6206;DHT22;3136;48.788;9.772;2022-12-18T08:36:54;-10.60;1.00
6206;DHT22;3136;48.788;9.772;2022-12-18T08:39:20;-10.50;1.00
6206;DHT22;3136;48.788;9.772;2022-12-18T08:41:45;-10.40;1.00
6206;DHT22;3136;48.788;9.772;2022-12-18T08:44:32;-10.30;99.90
6206;DHT22;3136;48.788;9.772;2022-12-18T08:47:05;-10.20;99.90
6206;DHT22;3136;48.788;9.772;2022-12-18T08:49:30;-10.00;99.90
6206;DHT22;3136;48.788;9.772;2022-12-18T08:51:56;-9.90;91.90
6206;DHT22;3136;48.788;9.772;2022-12-18T08:54:25;-9.80;1.00
6206;DHT22;3136;48.788;9.772;2022-12-18T08:56:51;-10.10;1.00
6206;DHT22;3136;48.788;9.772;2022-12-18T08:59:18;-9.60;1.00
6206;DHT22;3136;48.788;9.772;2022-12-18T09:01:44;-9.40;1.00
6206;DHT22;3136;48.788;9.772;2022-12-18T09:04:10;-9.30;1.00
6206;DHT22;3136;48.788;9.772;2022-12-18T09:06:36;-9.20;99.90
6206;DHT22;3136;48.788;9.772;2022-12-18T09:09:03;-9.10;99.90
6206;DHT22;3136;48.788;9.772;2022-12-18T09:11:29;-8.90;1.00
6206;DHT22;3136;48.788;9.772;2022-12-18T09:13:55;-8.80;1.00
6206;DHT22;3136;48.788;9.772;2022-12-18T09:16:22;-8.70;1.00
6206;DHT22;3136;48.788;9.772;2022-12-18T09:18:48;-8.60;95.10
6206;DHT22;3136;48.788;9.772;2022-12-18T09:21:19;-8.30;1.00
6206;DHT22;3136;48.788;9.772;2022-12-18T09:23:49;-8.20;1.00
6206;DHT22;3136;48.788;9.772;2022-12-18T09:26:15;-8.10;99.90
6206;DHT22;3136;48.788;9.772;2022-12-18T09:28:41;-7.90;99.90
6206;DHT22;3136;48.788;9.772;2022-12-18T09:31:08;-7.70;48.00
6206;DHT22;3136;48.788;9.772;2022-12-18T09:33:36;-7.60;1.00
6206;DHT22;3136;48.788;9.772;2022-12-18T09:36:04;-7.40;99.90
6206;DHT22;3136;48.788;9.772;2022-12-18T09:38:31;-7.00;1.00
6206;DHT22;3136;48.788;9.772;2022-12-18T09:41:04;-6.20;1.00
6206;DHT22;3136;48.788;9.772;2022-12-18T09:43:37;-5.20;64.40
6206;DHT22;3136;48.788;9.772;2022-12-18T09:46:08;-4.30;99.90
6206;DHT22;3136;48.788;9.772;2022-12-18T09:48:38;-3.80;29.40
6206;DHT22;3136;48.788;9.772;2022-12-18T09:51:15;-3.30;99.90
6206;DHT22;3136;48.788;9.772;2022-12-18T09:53:45;-2.60;99.90
6206;DHT22;3136;48.788;9.772;2022-12-18T09:56:16;-2.00;1.00
6206;DHT22;3136;48.788;9.772;2022-12-18T09:58:55;-1.80;1.00
6206;DHT22;3136;48.788;9.772;2022-12-18T10:01:23;-1.50;1.00
6206;DHT22;3136;48.788;9.772;2022-12-18T10:03:49;-1.30;99.90
6206;DHT22;3136;48.788;9.772;2022-12-18T10:15:08;-0.50;99.90
6206;DHT22;3136;48.788;9.772;2022-12-18T10:17:51;-0.10;99.90
6206;DHT22;3136;48.788;9.772;2022-12-18T10:26:05;-0.80;99.90
6206;DHT22;3136;48.788;9.772;2022-12-18T10:28:33;-0.70;99.90
6206;DHT22;3136;48.788;9.772;2022-12-18T10:31:06;-0.90;99.90
6206;DHT22;3136;48.788;9.772;2022-12-18T10:33:33;-1.10;99.90
6206;DHT22;3136;48.788;9.772;2022-12-18T10:35:59;-1.10;99.90
6206;DHT22;3136;48.788;9.772;2022-12-18T10:38:27;-1.20;99.90
6206;DHT22;3136;48.788;9.772;2022-12-18T10:41:05;-1.20;99.90
6206;DHT22;3136;48.788;9.772;2022-12-18T10:43:35;-1.30;1.00
6206;DHT22;3136;48.788;9.772;2022-12-18T10:46:14;-1.50;1.00
6206;DHT22;3136;48.788;9.772;2022-12-18T10:48:49;-1.80;1.00
6206;DHT22;3136;48.788;9.772;2022-12-18T10:51:27;-1.70;1.00
6206;DHT22;3136;48.788;9.772;2022-12-18T10:53:57;-1.80;1.00
6206;DHT22;3136;48.788;9.772;2022-12-18T10:56:26;-1.80;1.00
6206;DHT22;3136;48.788;9.772;2022-12-18T10:58:58;-1.70;3.70
6206;DHT22;3136;48.788;9.772;2022-12-18T11:01:24;-1.60;1.00
6206;DHT22;3136;48.788;9.772;2022-12-18T11:06:19;-1.40;86.90
6206;DHT22;3136;48.788;9.772;2022-12-18T11:09:03;-1.20;1.00
6206;DHT22;3136;48.788;9.772;2022-12-18T11:11:29;-1.20;1.00
6206;DHT22;3136;48.788;9.772;2022-12-18T11:14:05;-1.30;1.00
6206;DHT22;3136;48.788;9.772;2022-12-18T11:16:36;-1.30;34.80
6206;DHT22;3136;48.788;9.772;2022-12-18T11:21:41;-1.20;99.90
6206;DHT22;3136;48.788;9.772;2022-12-18T11:24:34;-1.10;99.90
6206;DHT22;3136;48.788;9.772;2022-12-18T11:27:16;-1.00;99.90
6206;DHT22;3136;48.788;9.772;2022-12-18T11:29:43;-0.90;63.20
6206;DHT22;3136;48.788;9.772;2022-12-18T11:34:46;-0.40;1.00
6206;DHT22;3136;48.788;9.772;2022-12-18T11:37:15;-0.40;1.00
6206;DHT22;3136;48.788;9.772;2022-12-18T11:40:03;-0.40;1.00
6206;DHT22;3136;48.788;9.772;2022-12-18T11:45:34;-0.10;1.00
6206;DHT22;3136;48.788;9.772;2022-12-18T11:48:23;0.20;1.00
6206;DHT22;3136;48.788;9.772;2022-12-18T11:50:56;0.30;99.90
6206;DHT22;3136;48.788;9.772;2022-12-18T11:53:22;0.20;99.90
6206;DHT22;3136;48.788;9.772;2022-12-18T11:58:52;0.40;99.90
6206;DHT22;3136;48.788;9.772;2022-12-18T12:01:37;0.60;99.90
6206;DHT22;3136;48.788;9.772;2022-12-18T12:15:06;1.00;99.90
6206;DHT22;3136;48.788;9.772;2022-12-18T12:20:47;1.40;99.90
6206;DHT22;3136;48.788;9.772;2022-12-18T12:23:41;1.70;99.90
6206;DHT22;3136;48.788;9.772;2022-12-18T12:29:01;2.20;99.90
6206;DHT22;3136;48.788;9.772;2022-12-18T12:34:08;2.50;99.90
6206;DHT22;3136;48.788;9.772;2022-12-18T12:39:36;2.50;99.90
6206;DHT22;3136;48.788;9.772;2022-12-18T12:42:04;2.20;99.90
6206;DHT22;3136;48.788;9.772;2022-12-18T12:45:01;2.20;99.90
6206;DHT22;3136;48.788;9.772;2022-12-18T12:47:33;2.00;99.90
6206;DHT22;3136;48.788;9.772;2022-12-18T12:50:04;1.90;99.90
6206;DHT22;3136;48.788;9.772;2022-12-18T12:52:56;1.80;99.90
6206;DHT22;3136;48.788;9.772;2022-12-18T12:55:25;1.70;99.90
6206;DHT22;3136;48.788;9.772;2022-12-18T13:03:54;1.60;99.90
6206;DHT22;3136;48.788;9.772;2022-12-18T13:06:29;1.80;99.90
6206;DHT22;3136;48.788;9.772;2022-12-18T13:09:00;1.90;99.90
6206;DHT22;3136;48.788;9.772;2022-12-18T13:11:40;2.00;99.90
6206;DHT22;3136;48.788;9.772;2022-12-18T13:14:39;1.80;99.90
6206;DHT22;3136;48.788;9.772;2022-12-18T13:20:12;1.50;99.90
6206;DHT22;3136;48.788;9.772;2022-12-18T13:22:48;1.20;99.90
6206;DHT22;3136;48.788;9.772;2022-12-18T13:25:37;1.00;99.90
6206;DHT22;3136;48.788;9.772;2022-12-18T13:28:10;0.80;99.90
6206;DHT22;3136;48.788;9.772;2022-12-18T13:30:56;0.70;99.90
6206;DHT22;3136;48.788;9.772;2022-12-18T13:38:33;0.60;99.90
6206;DHT22;3136;48.788;9.772;2022-12-18T13:41:24;0.50;99.90
6206;DHT22;3136;48.788;9.772;2022-12-18T13:43:55;0.20;1.00
6206;DHT22;3136;48.788;9.772;2022-12-18T13:46:42;0.00;1.00
6206;DHT22;3136;48.788;9.772;2022-12-18T13:51:42;-0.20;1.00
6206;DHT22;3136;48.788;9.772;2022-12-18T13:56:56;-0.40;99.90
6206;DHT22;3136;48.788;9.772;2022-12-18T13:59:26;-0.30;99.90
6206;DHT22;3136;48.788;9.772;2022-12-18T14:02:00;-0.50;99.90
6206;DHT22;3136;48.788;9.772;2022-12-18T14:04:34;-0.50;99.90
6206;DHT22;3136;48.788;9.772;2022-12-18T14:09:36;-0.60;1.00
6206;DHT22;3136;48.788;9.772;2022-12-18T14:12:02;-0.70;1.00
6206;DHT22;3136;48.788;9.772;2022-12-18T14:14:48;-0.80;1.00
6206;DHT22;3136;48.788;9.772;2022-12-18T14:17:16;-0.80;1.00
6206;DHT22;3136;48.788;9.772;2022-12-18T14:19:49;-0.80;1.00
6206;DHT22;3136;48.788;9.772;2022-12-18T14:22:21;-0.90;1.00
6206;DHT22;3136;48.788;9.772;2022-12-18T14:24:47;-1.00;1.00
6206;DHT22;3136;48.788;9.772;2022-12-18T14:27:29;-1.10;1.00
6206;DHT22;3136;48.788;9.772;2022-12-18T14:29:55;-1.20;1.00
6206;DHT22;3136;48.788;9.772;2022-12-18T14:32:20;-1.30;7.80
6206;DHT22;3136;48.788;9.772;2022-12-18T14:34:51;-1.30;74.10
6206;DHT22;3136;48.788;9.772;2022-12-18T14:37:22;-1.40;99.90
6206;DHT22;3136;48.788;9.772;2022-12-18T14:39:58;-1.50;99.90
6206;DHT22;3136;48.788;9.772;2022-12-18T14:42:26;-1.60;99.90
6206;DHT22;3136;48.788;9.772;2022-12-18T14:47:58;-1.80;99.90
6206;DHT22;3136;48.788;9.772;2022-12-18T14:50:24;-1.90;99.90
6206;DHT22;3136;48.788;9.772;2022-12-18T14:52:50;-2.00;99.90
6206;DHT22;3136;48.788;9.772;2022-12-18T14:55:17;-2.10;1.00
6206;DHT22;3136;48.788;9.772;2022-12-18T14:57:44;-2.30;1.00
6206;DHT22;3136;48.788;9.772;2022-12-18T15:00:18;-2.30;1.00
6206;DHT22;3136;48.788;9.772;2022-12-18T15:02:46;-2.40;1.00
6206;DHT22;3136;48.788;9.772;2022-12-18T15:05:47;-2.60;1.00
6206;DHT22;3136;48.788;9.772;2022-12-18T15:08:35;-2.70;1.00
6206;DHT22;3136;48.788;9.772;2022-12-18T15:11:02;-2.90;1.00
6206;DHT22;3136;48.788;9.772;2022-12-18T15:13:28;-3.00;99.90
6206;DHT22;3136;48.788;9.772;2022-12-18T15:15:56;-3.10;99.90
6206;DHT22;3136;48.788;9.772;2022-12-18T15:18:34;-3.20;1.00
6206;DHT22;3136;48.788;9.772;2022-12-18T15:21:09;-3.30;1.00
6206;DHT22;3136;48.788;9.772;2022-12-18T15:23:51;-3.40;1.00
6206;DHT22;3136;48.788;9.772;2022-12-18T15:26:20;-3.50;42.40
6206;DHT22;3136;48.788;9.772;2022-12-18T15:28:54;-3.60;99.90
6206;DHT22;3136;48.788;9.772;2022-12-18T15:36:17;-3.90;99.90
6206;DHT22;3136;48.788;9.772;2022-12-18T15:38:47;-4.00;1.00
6206;DHT22;3136;48.788;9.772;2022-12-18T15:41:14;-4.00;1.00
6206;DHT22;3136;48.788;9.772;2022-12-18T15:43:41;-4.10;1.00
6206;DHT22;3136;48.788;9.772;2022-12-18T15:48:40;-4.10;99.90
6206;DHT22;3136;48.788;9.772;2022-12-18T15:51:12;-4.20;99.90
6206;DHT22;3136;48.788;9.772;2022-12-18T15:53:39;-4.30;99.90
6206;DHT22;3136;48.788;9.772;2022-12-18T15:56:07;-4.40;99.90
6206;DHT22;3136;48.788;9.772;2022-12-18T15:58:53;-4.50;1.00
6206;DHT22;3136;48.788;9.772;2022-12-18T16:01:20;-4.60;29.20
6206;DHT22;3136;48.788;9.772;2022-12-18T16:03:46;-4.70;99.90
6206;DHT22;3136;48.788;9.772;2022-12-18T16:06:11;-4.80;1.00
6206;DHT22;3136;48.788;9.772;2022-12-18T16:08:37;-4.80;18.50
6206;DHT22;3136;48.788;9.772;2022-12-18T16:11:02;-4.50;1.00
6206;DHT22;3136;48.788;9.772;2022-12-18T16:13:28;-4.90;1.00
6206;DHT22;3136;48.788;9.772;2022-12-18T16:15:54;-4.90;1.00
6206;DHT22;3136;48.788;9.772;2022-12-18T16:18:19;-5.00;99.90
6206;DHT22;3136;48.788;9.772;2022-12-18T16:20:45;-5.10;99.90
6206;DHT22;3136;48.788;9.772;2022-12-18T16:23:11;-5.20;99.90
6206;DHT22;3136;48.788;9.772;2022-12-18T16:25:36;-5.20;99.90
6206;DHT22;3136;48.788;9.772;2022-12-18T16:28:02;-5.30;1.00
6206;DHT22;3136;48.788;9.772;2022-12-18T16:30:29;-5.40;1.00
6206;DHT22;3136;48.788;9.772;2022-12-18T16:32:58;-5.40;99.90
6206;DHT22;3136;48.788;9.772;2022-12-18T16:35:24;-5.40;1.00
6206;DHT22;3136;48.788;9.772;2022-12-18T16:37:50;-5.50;1.00
6206;DHT22;3136;48.788;9.772;2022-12-18T16:40:17;-5.60;1.00
6206;DHT22;3136;48.788;9.772;2022-12-18T16:42:44;-5.60;1.00
6206;DHT22;3136;48.788;9.772;2022-12-18T16:45:16;-5.70;1.00
6206;DHT22;3136;48.788;9.772;2022-12-18T16:47:42;-5.80;60.40
6206;DHT22;3136;48.788;9.772;2022-12-18T16:50:09;-5.80;99.90
6206;DHT22;3136;48.788;9.772;2022-12-18T16:52:35;-5.80;1.00
6206;DHT22;3136;48.788;9.772;2022-12-18T16:55:01;-5.80;5.50
6206;DHT22;3136;48.788;9.772;2022-12-18T16:57:26;-5.80;99.90
6206;DHT22;3136;48.788;9.772;2022-12-18T16:59:52;-5.70;1.00
6206;DHT22;3136;48.788;9.772;2022-12-18T17:02:20;-5.70;8.50
6206;DHT22;3136;48.788;9.772;2022-12-18T17:04:46;-5.60;75.40
6206;DHT22;3136;48.788;9.772;2022-12-18T17:07:13;-5.60;1.00
6206;DHT22;3136;48.788;9.772;2022-12-18T17:09:39;-5.70;29.10
6206;DHT22;3136;48.788;9.772;2022-12-18T17:12:05;-5.70;99.90
6206;DHT22;3136;48.788;9.772;2022-12-18T17:17:07;-5.60;99.90
6206;DHT22;3136;48.788;9.772;2022-12-18T17:19:32;-5.60;99.90
6206;DHT22;3136;48.788;9.772;2022-12-18T17:21:58;-5.60;99.90
6206;DHT22;3136;48.788;9.772;2022-12-18T17:24:24;-5.60;99.90
6206;DHT22;3136;48.788;9.772;2022-12-18T17:26:50;-5.60;1.00
6206;DHT22;3136;48.788;9.772;2022-12-18T17:29:18;-5.60;1.00
6206;DHT22;3136;48.788;9.772;2022-12-18T17:31:46;-5.60;1.00
6206;DHT22;3136;48.788;9.772;2022-12-18T17:34:12;-5.60;1.00
6206;DHT22;3136;48.788;9.772;2022-12-18T17:36:38;-5.60;1.00
6206;DHT22;3136;48.788;9.772;2022-12-18T17:39:06;-5.60;1.00
6206;DHT22;3136;48.788;9.772;2022-12-18T17:41:32;-5.60;1.00
6206;DHT22;3136;48.788;9.772;2022-12-18T17:44:00;-5.60;1.00
6206;DHT22;3136;48.788;9.772;2022-12-18T17:46:27;-5.60;1.00
6206;DHT22;3136;48.788;9.772;2022-12-18T17:48:57;-5.60;1.00
6206;DHT22;3136;48.788;9.772;2022-12-18T17:51:24;-5.60;1.00
6206;DHT22;3136;48.788;9.772;2022-12-18T17:53:50;-5.60;1.00
6206;DHT22;3136;48.788;9.772;2022-12-18T17:56:18;-5.60;1.00
6206;DHT22;3136;48.788;9.772;2022-12-18T17:58:44;-5.60;1.00
6206;DHT22;3136;48.788;9.772;2022-12-18T18:01:15;-5.60;1.00
6206;DHT22;3136;48.788;9.772;2022-12-18T18:03:41;-5.60;1.00
6206;DHT22;3136;48.788;9.772;2022-12-18T18:06:06;-5.50;1.00
6206;DHT22;3136;48.788;9.772;2022-12-18T18:08:33;-6.60;1.00
6206;DHT22;3136;48.788;9.772;2022-12-18T18:11:04;-5.50;1.00